createdAt,value
2022-11-21T02:50:41.809Z,7.43
2022-11-21T02:53:27.341Z,6.85
2022-11-21T02:56:12.416Z,7.18
2022-11-21T02:58:58.247Z,7.60
2022-11-21T03:01:25.043Z,6.10
2022-11-21T03:03:51.848Z,5.60
2022-11-21T03:06:18.607Z,5.43
2022-11-21T03:08:45.367Z,6.40
2022-11-21T03:11:12.130Z,7.03
2022-11-21T03:13:38.922Z,7.38
2022-11-21T03:16:05.662Z,5.93
2022-11-21T03:18:32.411Z,7.57
2022-11-21T03:20:59.218Z,8.38
2022-11-21T03:23:25.975Z,55.45
2022-11-21T03:25:52.736Z,8.43
2022-11-21T03:28:20.146Z,7.85
2022-11-21T03:30:47.388Z,8.88
2022-11-21T03:33:14.166Z,8.25
2022-11-21T03:35:40.945Z,6.68
2022-11-21T03:38:07.701Z,5.85
2022-11-21T03:40:34.476Z,7.75
2022-11-21T03:43:06.080Z,6.35
2022-11-21T03:45:32.855Z,8.20
2022-11-21T03:47:59.603Z,5.68
2022-11-21T03:50:26.367Z,6.53
2022-11-21T03:52:53.116Z,8.23
2022-11-21T03:55:19.928Z,6.97
2022-11-21T03:57:46.703Z,7.70
2022-11-21T04:00:14.240Z,6.40
2022-11-21T04:05:08.147Z,7.20
2022-11-21T04:07:34.979Z,8.80
2022-11-21T04:10:01.816Z,8.38
2022-11-21T04:12:28.572Z,9.02
2022-11-21T04:14:55.532Z,8.50
2022-11-21T04:17:22.282Z,8.82
2022-11-21T04:19:49.016Z,6.70
2022-11-21T04:22:15.749Z,20.48
2022-11-21T04:24:42.474Z,9.17
2022-11-21T04:27:09.195Z,7.83
2022-11-21T04:29:35.922Z,7.55
2022-11-21T04:32:02.720Z,8.13
2022-11-21T04:34:29.775Z,9.45
2022-11-21T04:36:56.711Z,11.15
2022-11-21T04:39:23.498Z,8.23
2022-11-21T04:41:50.277Z,9.02
2022-11-21T04:44:16.999Z,11.15
2022-11-21T04:46:43.763Z,12.13
2022-11-21T04:49:10.502Z,11.27
2022-11-21T04:51:37.232Z,8.18
2022-11-21T04:54:04.017Z,7.78
2022-11-21T04:56:30.784Z,9.20
2022-11-21T04:58:57.559Z,11.18
2022-11-21T05:01:24.379Z,10.98
2022-11-21T05:03:52.701Z,8.57
2022-11-21T05:06:19.473Z,11.20
2022-11-21T05:08:51.632Z,12.27
2022-11-21T05:11:38.381Z,13.23
2022-11-21T05:14:05.289Z,11.15
2022-11-21T05:16:35.197Z,12.68
2022-11-21T05:19:01.915Z,10.95
2022-11-21T05:21:28.654Z,11.60
2022-11-21T05:23:55.414Z,11.55
2022-11-21T05:26:22.179Z,8.90
2022-11-21T05:28:48.942Z,11.27
2022-11-21T05:31:15.768Z,10.70
2022-11-21T05:33:42.557Z,10.45
2022-11-21T05:36:09.393Z,11.02
2022-11-21T05:38:36.130Z,12.57
2022-11-21T05:41:02.870Z,9.48
2022-11-21T05:43:47.881Z,13.43
2022-11-21T05:46:16.638Z,12.20
2022-11-21T05:48:43.381Z,12.88
2022-11-21T05:51:10.621Z,8.98
2022-11-21T05:53:37.694Z,11.35
2022-11-21T05:56:10.293Z,8.88
2022-11-21T05:58:37.720Z,12.02
2022-11-21T06:01:05.650Z,11.80
2022-11-21T06:03:36.363Z,11.50
2022-11-21T06:06:14.460Z,11.85
2022-11-21T06:08:43.644Z,10.77
2022-11-21T06:11:12.328Z,11.07
2022-11-21T06:13:39.678Z,10.90
2022-11-21T06:16:08.881Z,11.68
2022-11-21T06:18:38.042Z,11.57
2022-11-21T06:21:07.671Z,11.35
2022-11-21T06:23:35.146Z,12.45
2022-11-21T06:28:35.631Z,11.27
2022-11-21T06:31:06.900Z,10.60
2022-11-21T06:33:34.852Z,11.15
2022-11-21T06:36:03.613Z,11.23
2022-11-21T06:38:30.400Z,10.18
2022-11-21T06:40:57.181Z,8.18
2022-11-21T06:43:23.914Z,10.57
2022-11-21T06:45:50.648Z,9.83
2022-11-21T06:48:17.409Z,8.00
2022-11-21T06:50:44.170Z,8.60
2022-11-21T06:53:10.973Z,9.10
2022-11-21T06:55:37.725Z,9.93
2022-11-21T06:58:04.508Z,9.30
2022-11-21T07:00:31.310Z,7.22
2022-11-21T07:03:03.424Z,8.02
2022-11-21T07:05:31.302Z,9.70
2022-11-21T07:08:02.399Z,9.18
2022-11-21T07:10:30.684Z,11.10
2022-11-21T07:13:16.950Z,10.10
2022-11-21T07:15:44.539Z,10.83
2022-11-21T07:18:11.825Z,9.65
2022-11-21T07:20:39.450Z,10.48
2022-11-21T07:25:36.571Z,9.18
2022-11-21T07:28:04.338Z,10.02
2022-11-21T07:30:31.380Z,10.80
2022-11-21T07:32:59.765Z,9.60
2022-11-21T07:35:27.195Z,9.65
2022-11-21T07:37:54.039Z,10.13
2022-11-21T07:40:21.913Z,11.68
2022-11-21T07:42:48.927Z,9.65
2022-11-21T07:45:15.899Z,11.25
2022-11-21T07:47:43.458Z,8.32
2022-11-21T07:55:05.767Z,10.23
2022-11-21T07:57:32.965Z,12.45
2022-11-21T07:59:59.724Z,11.90
2022-11-21T08:02:28.119Z,9.85
2022-11-21T08:04:55.012Z,12.75
2022-11-21T08:07:23.937Z,11.88
2022-11-21T08:09:51.080Z,12.60
2022-11-21T08:12:18.005Z,13.55
2022-11-21T08:15:36.175Z,12.15
2022-11-21T08:18:12.795Z,11.73
2022-11-21T08:20:40.054Z,12.20
2022-11-21T08:23:07.402Z,11.32
2022-11-21T08:25:36.575Z,11.50
2022-11-21T08:28:04.030Z,12.98
2022-11-21T08:30:31.907Z,12.80
2022-11-21T08:32:59.648Z,11.90
2022-11-21T08:35:27.082Z,13.93
2022-11-21T08:38:00.994Z,11.68
2022-11-21T08:40:30.343Z,14.20
2022-11-21T08:43:02.033Z,13.48
2022-11-21T08:45:29.601Z,12.73
2022-11-21T08:50:23.652Z,9.55
2022-11-21T08:52:50.748Z,12.90
2022-11-21T08:55:18.028Z,13.18
2022-11-21T08:57:44.724Z,14.20
2022-11-21T09:00:15.302Z,12.82
2022-11-21T09:02:42.208Z,13.65
2022-11-21T09:05:09.640Z,10.70
2022-11-21T09:10:04.058Z,13.63
2022-11-21T09:12:31.268Z,13.40
2022-11-21T09:15:16.538Z,13.25
2022-11-21T09:18:01.760Z,13.48
2022-11-21T09:20:28.852Z,13.77
2022-11-21T09:22:55.665Z,12.75
2022-11-21T09:25:22.477Z,14.25
2022-11-21T09:27:49.229Z,11.75
2022-11-21T10:15:12.303Z,13.82
2022-11-21T10:18:17.819Z,14.02
2022-11-21T10:20:58.886Z,13.50
2022-11-21T10:23:53.147Z,13.75
2022-11-21T10:26:41.276Z,13.88
2022-11-21T10:29:34.869Z,14.23
2022-11-21T10:32:10.216Z,13.73
2022-11-21T10:34:38.922Z,12.32
2022-11-21T10:37:41.347Z,13.05
2022-11-21T10:40:13.869Z,12.30
2022-11-21T10:42:51.864Z,11.77
2022-11-21T10:45:19.753Z,12.25
2022-11-21T10:47:49.192Z,13.68
2022-11-21T10:50:38.877Z,12.07
2022-11-21T10:53:28.583Z,13.07
2022-11-21T10:56:17.672Z,10.88
2022-11-21T10:58:48.432Z,12.38
2022-11-21T11:01:25.993Z,11.93
2022-11-21T11:04:26.866Z,11.00
2022-11-21T11:06:53.732Z,10.73
2022-11-21T11:09:24.996Z,12.27
2022-11-21T11:11:52.032Z,10.80
2022-11-21T11:14:30.943Z,10.50
2022-11-21T11:16:58.282Z,12.40
2022-11-21T11:19:35.469Z,11.68
2022-11-21T11:22:27.831Z,9.45
2022-11-21T11:24:59.088Z,10.25
2022-11-21T11:27:28.957Z,10.27
2022-11-21T11:29:55.863Z,10.50
2022-11-21T11:32:22.977Z,7.80
2022-11-21T11:35:00.712Z,10.13
2022-11-21T11:37:40.698Z,10.70
2022-11-21T11:40:32.551Z,9.32
2022-11-21T11:44:01.490Z,9.52
2022-11-21T11:46:52.428Z,10.23
2022-11-21T11:49:53.273Z,9.23
2022-11-21T11:52:23.455Z,9.40
2022-11-21T11:54:55.945Z,8.85
2022-11-21T11:57:22.812Z,9.05
2022-11-21T12:00:19.119Z,8.82
2022-11-21T12:02:54.895Z,8.57
2022-11-21T12:05:26.170Z,9.63
2022-11-21T12:08:42.339Z,8.60
2022-11-21T12:13:57.232Z,8.32
2022-11-21T12:16:26.442Z,8.50
2022-11-21T12:19:07.864Z,8.05
2022-11-21T12:21:34.784Z,7.45
2022-11-21T12:24:04.859Z,8.10
2022-11-21T12:26:59.148Z,7.88
2022-11-21T12:30:08.199Z,7.43
2022-11-21T12:32:55.586Z,6.70
2022-11-21T12:35:47.368Z,7.20
2022-11-21T12:38:23.229Z,7.13
2022-11-21T12:41:33.571Z,7.38
2022-11-21T12:44:29.930Z,7.38
2022-11-21T12:47:30.813Z,7.97
2022-11-21T12:50:33.637Z,7.60
2022-11-21T12:53:30.655Z,6.90
2022-11-21T12:58:42.298Z,6.50
2022-11-21T13:01:21.801Z,6.82
2022-11-21T13:03:58.340Z,7.10
2022-11-21T13:06:28.547Z,6.60
2022-11-21T13:08:58.375Z,6.50
2022-11-21T13:11:59.365Z,6.57
2022-11-21T13:14:39.245Z,5.50
2022-11-21T13:17:08.742Z,5.57
2022-11-21T13:19:52.886Z,4.95
2022-11-21T13:22:49.934Z,4.53
2022-11-21T13:25:31.908Z,4.57
2022-11-21T13:28:13.694Z,4.97
2022-11-21T13:30:56.871Z,5.03
2022-11-21T13:33:35.745Z,5.28
2022-11-21T13:36:31.901Z,4.00
2022-11-21T13:38:58.717Z,3.97
2022-11-21T13:41:53.214Z,4.97
2022-11-21T13:44:32.340Z,4.43
2022-11-21T13:47:12.205Z,4.80
2022-11-21T13:49:53.713Z,4.57
2022-11-21T13:52:20.414Z,4.88
2022-11-21T13:55:02.094Z,3.40
2022-11-21T13:57:39.468Z,4.13
2022-11-21T14:03:13.195Z,3.67
2022-11-21T14:06:01.292Z,4.30
2022-11-21T14:08:29.641Z,3.35
2022-11-21T14:10:58.303Z,3.45
2022-11-21T14:13:36.159Z,4.30
2022-11-21T14:16:05.953Z,4.18
2022-11-21T14:18:33.301Z,3.67
2022-11-21T14:21:01.921Z,3.97
2022-11-21T14:23:32.344Z,3.80
2022-11-21T14:26:26.293Z,3.22
2022-11-21T14:28:53.122Z,3.72
2022-11-21T14:31:19.867Z,3.70
2022-11-21T14:33:48.153Z,2.20
2022-11-21T14:36:22.194Z,3.05
2022-11-21T14:39:13.729Z,3.05
2022-11-21T14:41:39.582Z,3.20
2022-11-21T14:44:14.773Z,3.13
2022-11-21T14:46:42.767Z,2.95
2022-11-21T14:49:12.580Z,3.03
2022-11-21T14:51:40.824Z,2.75
2022-11-21T14:54:14.689Z,2.75
2022-11-21T14:56:41.923Z,2.78
2022-11-21T14:59:18.406Z,2.88
2022-11-21T15:01:56.441Z,2.27
2022-11-21T15:04:29.667Z,2.70
2022-11-21T15:06:56.824Z,2.65
2022-11-21T15:12:13.360Z,2.97
2022-11-21T15:14:48.899Z,2.83
2022-11-21T15:17:20.583Z,2.55
2022-11-21T15:20:05.798Z,2.67
2022-11-21T15:22:39.705Z,2.95
2022-11-21T15:25:26.774Z,2.53
2022-11-21T15:27:59.357Z,3.08
2022-11-21T15:30:27.514Z,2.53
2022-11-21T15:33:03.500Z,2.75
2022-11-21T15:35:39.452Z,3.28
2022-11-21T15:38:24.431Z,2.60
2022-11-21T15:41:09.322Z,2.28
2022-11-21T15:43:48.180Z,2.45
2022-11-21T15:46:17.874Z,1.90
2022-11-21T15:48:48.203Z,2.30
2022-11-21T15:51:15.914Z,2.58
2022-11-21T15:53:43.075Z,2.60
2022-11-21T15:56:16.992Z,2.53
2022-11-21T15:58:48.495Z,2.35
2022-11-21T16:01:27.547Z,2.88
2022-11-21T16:03:58.059Z,2.63
2022-11-21T16:06:24.891Z,2.88
2022-11-21T16:08:51.732Z,3.10
2022-11-21T16:11:23.065Z,3.40
2022-11-21T16:13:50.711Z,2.63
2022-11-21T16:16:18.918Z,2.65
2022-11-21T16:18:46.994Z,2.20
2022-11-21T16:21:14.465Z,2.20
2022-11-21T16:23:41.565Z,2.40
2022-11-21T16:26:10.163Z,2.22
2022-11-21T16:28:37.779Z,2.15
2022-11-21T16:31:05.299Z,2.03
2022-11-21T16:38:28.285Z,2.05
2022-11-21T16:41:00.248Z,2.20
2022-11-21T16:43:29.059Z,2.30
2022-11-21T16:45:56.754Z,2.20
2022-11-21T16:48:23.856Z,2.60
2022-11-21T16:50:50.660Z,1.90
2022-11-21T16:53:17.424Z,1.88
2022-11-21T16:55:44.245Z,2.30
2022-11-21T16:58:11.098Z,2.28
2022-11-21T17:00:39.058Z,2.15
2022-11-21T17:03:05.956Z,1.67
2022-11-21T17:05:32.708Z,1.98
2022-11-21T17:07:59.475Z,1.80
2022-11-21T17:10:32.567Z,1.35
2022-11-21T17:13:00.645Z,1.77
2022-11-21T17:15:27.404Z,1.73
2022-11-21T17:17:54.549Z,2.20
2022-11-21T17:20:21.306Z,1.80
2022-11-21T17:22:48.050Z,1.15
2022-11-21T17:25:14.873Z,1.42
2022-11-21T17:27:41.618Z,1.40
2022-11-21T17:30:08.791Z,1.77
2022-11-21T17:32:35.651Z,1.42
2022-11-21T17:35:02.491Z,1.90
2022-11-21T17:37:29.273Z,1.83
2022-11-21T17:39:56.027Z,1.45
2022-11-21T17:42:23.940Z,2.22
2022-11-21T17:44:50.744Z,1.70
2022-11-21T17:47:17.494Z,1.50
2022-11-21T17:49:44.275Z,2.10
2022-11-21T17:52:11.236Z,2.17
2022-11-21T17:54:38.012Z,1.60
2022-11-21T17:57:04.833Z,1.48
2022-11-21T17:59:31.801Z,1.70
2022-11-21T18:01:58.793Z,1.48
2022-11-21T18:04:25.655Z,1.70
2022-11-21T18:06:52.428Z,1.50
2022-11-21T18:09:19.196Z,2.10
2022-11-21T18:11:46.340Z,1.45
2022-11-21T18:14:13.685Z,1.95
2022-11-21T18:16:44.721Z,1.88
2022-11-21T18:19:14.617Z,1.55
2022-11-21T18:21:41.736Z,1.33
2022-11-21T18:24:08.960Z,1.85
2022-11-21T18:26:37.994Z,1.25
2022-11-21T18:29:35.270Z,1.77
2022-11-21T18:31:53.839Z,1.40
2022-11-21T18:34:20.786Z,2.80
2022-11-21T18:36:47.712Z,2.38
2022-11-21T18:39:15.659Z,2.17
2022-11-21T18:41:42.784Z,1.77
2022-11-21T18:44:09.907Z,1.63
2022-11-21T18:46:38.220Z,1.85
2022-11-21T18:49:07.378Z,2.00
2022-11-21T18:51:34.981Z,2.20
2022-11-21T18:54:10.880Z,2.13
2022-11-21T18:56:39.384Z,2.53
2022-11-21T18:59:06.838Z,1.67
2022-11-21T19:01:35.596Z,1.48
2022-11-21T19:04:02.815Z,1.60
2022-11-21T19:06:29.902Z,2.00
2022-11-21T19:08:57.944Z,2.05
2022-11-21T19:11:27.289Z,1.83
2022-11-21T19:13:55.363Z,2.10
2022-11-21T19:16:25.093Z,2.00
2022-11-21T19:21:41.250Z,2.05
2022-11-21T19:24:13.135Z,1.90
2022-11-21T19:26:40.179Z,1.75
2022-11-21T19:29:06.984Z,2.08
2022-11-21T19:31:35.707Z,1.33
2022-11-21T19:34:05.981Z,1.50
2022-11-21T19:36:32.791Z,1.60
2022-11-21T19:38:59.616Z,1.60
2022-11-21T19:41:26.695Z,1.30
2022-11-21T19:43:56.382Z,1.70
2022-11-21T19:46:34.679Z,1.45
2022-11-21T19:49:01.679Z,1.52
2022-11-21T19:51:34.406Z,1.13
2022-11-21T19:54:05.481Z,1.40
2022-11-21T19:56:32.421Z,1.50
2022-11-21T19:58:59.272Z,1.60
2022-11-21T20:01:30.739Z,1.63
2022-11-21T20:04:00.239Z,1.55
2022-11-21T20:06:32.456Z,1.85
2022-11-21T20:09:10.919Z,1.65
2022-11-21T20:11:40.061Z,1.75
2022-11-21T20:14:07.120Z,1.77
2022-11-21T20:16:53.548Z,1.40
2022-11-21T20:19:22.634Z,2.30
2022-11-21T20:21:49.661Z,1.50
2022-11-21T20:24:17.128Z,1.80
2022-11-21T20:29:13.585Z,2.47
2022-11-21T20:31:40.575Z,1.98
2022-11-21T20:34:12.354Z,1.83
2022-11-21T20:36:39.839Z,1.35
2022-11-21T20:41:36.303Z,1.67
2022-11-21T20:45:07.248Z,1.85
2022-11-21T20:46:54.720Z,1.65
2022-11-21T20:49:21.612Z,1.95
2022-11-21T20:54:36.265Z,2.17
2022-11-21T20:57:03.122Z,2.22
2022-11-21T20:59:30.141Z,2.33
2022-11-21T21:01:57.202Z,2.67
2022-11-21T21:04:24.051Z,3.00
2022-11-21T21:06:50.894Z,3.20
2022-11-21T21:09:17.634Z,1.92
2022-11-21T21:11:52.105Z,2.25
2022-11-21T21:14:20.532Z,2.35
2022-11-21T21:16:47.337Z,2.20
2022-11-21T21:19:14.122Z,2.00
2022-11-21T21:21:41.527Z,1.60
2022-11-21T21:26:54.592Z,2.40
2022-11-21T21:29:21.925Z,2.35
2022-11-21T21:31:52.008Z,2.03
2022-11-21T21:34:21.549Z,2.22
2022-11-21T21:36:48.730Z,1.60
2022-11-21T21:39:15.537Z,2.47
2022-11-21T21:41:46.437Z,1.40
2022-11-21T21:44:14.390Z,2.03
2022-11-21T21:46:41.253Z,2.03
2022-11-21T21:49:08.072Z,1.85
2022-11-21T21:51:36.983Z,1.65
2022-11-21T21:54:04.254Z,1.70
2022-11-21T21:56:31.093Z,1.75
2022-11-21T21:58:58.244Z,1.33
2022-11-21T22:01:29.616Z,1.80
2022-11-21T22:04:01.495Z,1.73
2022-11-21T22:06:29.117Z,2.00
2022-11-21T22:08:56.332Z,1.60
2022-11-21T22:11:25.642Z,2.15
2022-11-21T22:14:06.842Z,2.03
2022-11-21T22:16:33.868Z,1.77
2022-11-21T22:19:00.675Z,1.92
2022-11-21T22:21:32.160Z,1.88
2022-11-21T22:26:47.400Z,2.20
2022-11-21T22:29:14.202Z,1.70
2022-11-21T22:31:40.974Z,1.90
2022-11-21T22:34:10.164Z,1.83
2022-11-21T22:36:36.928Z,2.15
2022-11-21T22:39:03.771Z,1.95
2022-11-21T22:41:30.598Z,1.48
2022-11-21T22:43:59.367Z,1.52
2022-11-21T22:46:28.217Z,1.75
2022-11-21T22:48:55.749Z,1.48
2022-11-21T22:53:51.479Z,1.80
2022-11-21T22:56:20.671Z,1.60
2022-11-21T22:58:47.626Z,1.55
2022-11-21T23:01:19.667Z,1.20
2022-11-21T23:03:46.873Z,1.27
2022-11-21T23:06:25.239Z,1.60
2022-11-21T23:08:54.647Z,1.95
2022-11-21T23:11:25.699Z,2.17
2022-11-21T23:13:53.645Z,1.33
2022-11-21T23:16:21.266Z,1.30
2022-11-21T23:18:48.461Z,1.33
2022-11-21T23:21:15.261Z,1.25
2022-11-21T23:23:42.065Z,1.20
2022-11-21T23:26:10.179Z,1.38
2022-11-21T23:28:36.944Z,1.30
2022-11-21T23:31:03.709Z,1.10
2022-11-21T23:33:30.545Z,1.10
2022-11-21T23:35:57.314Z,1.23
2022-11-21T23:38:24.173Z,1.33
2022-11-21T23:40:51.017Z,1.80
2022-11-21T23:43:18.359Z,1.45
2022-11-21T23:45:49.350Z,1.20
2022-11-21T23:48:16.298Z,1.17
2022-11-21T23:50:43.045Z,1.42
2022-11-21T23:53:09.799Z,1.27
2022-11-21T23:55:36.620Z,1.55
2022-11-21T23:58:03.440Z,1.17
